Time;durP1;ratioP1;P1;durP2;ratioP2;P2;SDS_P1;SDS_P2;PMS_P1;PMS_P2;Temp;Humidity;BMP_temperature;BMP_pressure;BME280_temperature;BME280_humidity;BME280_pressure;Samples;Min_cycle;Max_cycle;Signal;HPM_P1;HPM_P2
2023/03/28 00:01:44;;;;;;;4.37;2.20;;;4.40;99.90;;;;;;5095101;28;20023;-80
2023/03/28 00:04:10;;;;;;;3.70;2.20;;;4.40;99.90;;;;;;5095329;28;20055;-80
2023/03/28 00:06:37;;;;;;;3.13;1.83;;;4.40;99.90;;;;;;5095104;28;20035;-80
2023/03/28 00:09:04;;;;;;;2.83;1.60;;;4.40;99.90;;;;;;5095127;28;20020;-80
2023/03/28 00:11:30;;;;;;;4.77;1.63;;;4.30;99.90;;;;;;5095330;28;20059;-80
2023/03/28 00:14:01;;;;;;;2.53;1.50;;;4.30;99.90;;;;;;5094547;28;20127;-80
2023/03/28 00:16:32;;;;;;;4.37;1.40;;;4.40;99.90;;;;;;5094380;28;20503;-80
2023/03/28 00:18:59;;;;;;;7.27;1.23;;;4.40;99.90;;;;;;5094827;28;20027;-80
2023/03/28 00:21:30;;;;;;;3.90;1.20;;;4.40;99.90;;;;;;5094445;28;20260;-80
2023/03/28 00:24:00;;;;;;;2.67;1.30;;;4.30;99.90;;;;;;5095575;28;20021;-80
2023/03/28 00:26:28;;;;;;;2.53;1.23;;;4.20;99.90;;;;;;5094188;28;20258;-80
2023/03/28 00:28:55;;;;;;;6.47;2.20;;;4.20;99.90;;;;;;5094484;28;20035;-79
2023/03/28 00:31:22;;;;;;;7.80;4.10;;;4.10;99.90;;;;;;5095592;28;20085;-80
2023/03/28 00:33:48;;;;;;;4.53;1.87;;;4.10;99.90;;;;;;5094385;28;20115;-80
2023/03/28 00:36:22;;;;;;;4.23;1.70;;;4.10;99.90;;;;;;5094151;28;20059;-82
2023/03/28 00:39:06;;;;;;;3.17;1.50;;;4.10;99.90;;;;;;5094442;28;20028;-82
2023/03/28 00:41:41;;;;;;;2.30;1.10;;;4.20;99.90;;;;;;5094131;28;20124;-81
2023/03/28 00:44:38;;;;;;;2.67;1.23;;;4.20;99.90;;;;;;5093967;28;20113;-81
2023/03/28 00:47:05;;;;;;;4.20;1.10;;;4.10;99.90;;;;;;5095125;28;20035;-81
2023/03/28 00:49:31;;;;;;;4.50;1.30;;;4.20;99.90;;;;;;5093821;28;20032;-81
2023/03/28 00:52:00;;;;;;;2.00;1.13;;;4.20;99.90;;;;;;5094165;28;20024;-81
2023/03/28 00:54:29;;;;;;;1.57;1.10;;;4.20;99.90;;;;;;5093659;28;20034;-80
2023/03/28 00:56:58;;;;;;;1.87;0.97;;;4.10;99.90;;;;;;5094270;28;20024;-81
2023/03/28 00:59:27;;;;;;;3.73;1.20;;;4.10;99.90;;;;;;5093813;28;20061;-81
2023/03/28 01:01:54;;;;;;;2.60;1.10;;;4.10;99.90;;;;;;5094962;28;20114;-80
2023/03/28 01:04:23;;;;;;;3.33;1.00;;;4.10;99.90;;;;;;5093574;28;20043;-81
2023/03/28 01:06:53;;;;;;;4.30;1.07;;;4.10;99.90;;;;;;5093375;28;20066;-81
2023/03/28 01:09:22;;;;;;;4.43;1.30;;;4.10;99.90;;;;;;5093509;28;20028;-81
2023/03/28 01:11:48;;;;;;;3.50;1.50;;;4.10;99.90;;;;;;5093551;28;20032;-81
2023/03/28 01:14:18;;;;;;;3.07;1.10;;;4.10;99.90;;;;;;5094366;28;20032;-81
2023/03/28 01:16:44;;;;;;;4.10;1.20;;;4.10;99.90;;;;;;5093627;28;20413;-81
2023/03/28 01:19:42;;;;;;;2.50;1.40;;;4.10;99.90;;;;;;5093142;28;20024;-81
2023/03/28 01:22:26;;;;;;;3.10;1.20;;;4.10;99.90;;;;;;5055255;28;20054;-81
2023/03/28 01:25:17;;;;;;;4.00;1.07;;;4.10;99.90;;;;;;5093333;28;20024;-81
2023/03/28 01:28:19;;;;;;;4.50;1.30;;;4.10;99.90;;;;;;5093443;28;20040;-81
2023/03/28 01:31:06;;;;;;;1.17;1.00;;;4.10;99.90;;;;;;5092969;28;20055;-80
2023/03/28 01:33:41;;;;;;;5.83;1.20;;;4.00;99.90;;;;;;5092703;28;20024;-81
2023/03/28 01:36:32;;;;;;;2.73;1.33;;;4.00;99.90;;;;;;5093282;28;20435;-80
2023/03/28 01:39:22;;;;;;;2.07;1.20;;;3.90;99.90;;;;;;5093384;28;20031;-80
2023/03/28 01:41:51;;;;;;;3.73;1.63;;;3.80;99.90;;;;;;5092954;28;20020;-80
2023/03/28 01:44:57;;;;;;;3.50;1.40;;;3.70;99.90;;;;;;5092114;28;20500;-80
2023/03/28 01:47:34;;;;;;;1.93;1.30;;;3.70;99.90;;;;;;5092221;28;20036;-80
2023/03/28 01:50:25;;;;;;;3.03;1.00;;;3.70;99.90;;;;;;5093676;28;20070;-80
2023/03/28 01:53:27;;;;;;;2.43;1.10;;;3.70;99.90;;;;;;5092936;28;20055;-80
2023/03/28 01:56:06;;;;;;;1.80;0.90;;;3.70;99.90;;;;;;5092759;28;20050;-80
2023/03/28 01:58:43;;;;;;;5.07;1.20;;;3.60;99.90;;;;;;5093274;28;20031;-80
2023/03/28 02:01:29;;;;;;;2.77;1.50;;;3.50;99.90;;;;;;5092831;28;20021;-80
2023/03/28 02:04:00;;;;;;;1.93;1.20;;;3.40;99.90;;;;;;5092799;28;20031;-80
2023/03/28 02:06:28;;;;;;;2.60;1.20;;;3.40;99.90;;;;;;5091988;28;20028;-80
2023/03/28 02:08:55;;;;;;;2.27;1.30;;;3.40;99.90;;;;;;5093034;28;20043;-81
2023/03/28 02:11:23;;;;;;;2.00;1.50;;;3.40;99.90;;;;;;5092337;28;20350;-82
2023/03/28 02:13:56;;;;;;;3.70;1.53;;;3.30;99.90;;;;;;5093737;28;20034;-81
2023/03/28 02:16:24;;;;;;;3.40;1.47;;;3.30;99.90;;;;;;5091956;28;20089;-81
2023/03/28 02:18:55;;;;;;;2.47;1.37;;;3.20;99.90;;;;;;5094864;28;20077;-81
2023/03/28 02:21:30;;;;;;;3.17;1.47;;;3.30;99.90;;;;;;5096587;28;20534;-81
2023/03/28 02:23:56;;;;;;;5.63;1.83;;;3.20;99.90;;;;;;5096765;28;20035;-81
2023/03/28 02:26:24;;;;;;;3.97;1.60;;;3.30;99.90;;;;;;5096048;28;20028;-81
2023/03/28 02:28:53;;;;;;;4.23;1.60;;;3.30;99.90;;;;;;5096698;28;20047;-81
2023/03/28 02:31:21;;;;;;;2.70;1.50;;;3.30;99.90;;;;;;5096456;28;20174;-82
2023/03/28 02:33:48;;;;;;;7.23;1.63;;;3.20;99.90;;;;;;5097859;28;20449;-80
2023/03/28 02:36:39;;;;;;;5.20;1.70;;;3.20;99.90;;;;;;5097438;28;20483;-84
2023/03/28 02:39:31;;;;;;;5.20;2.27;;;3.20;99.90;;;;;;5097553;28;20028;-80
2023/03/28 02:42:30;;;;;;;4.28;1.73;;;3.10;99.90;;;;;;5058051;28;20127;-81
2023/03/28 02:44:56;;;;;;;4.87;1.90;;;3.10;99.90;;;;;;5096041;28;20050;-81
2023/03/28 02:47:50;;;;;;;4.83;1.77;;;3.20;99.90;;;;;;5095953;28;20040;-82
2023/03/28 02:50:21;;;;;;;2.77;1.70;;;3.10;99.90;;;;;;5097110;28;20020;-82
2023/03/28 02:53:11;;;;;;;4.05;2.10;;;3.10;99.90;;;;;;5097324;28;20028;-80
2023/03/28 02:56:03;;;;;;;2.50;1.60;;;3.10;99.90;;;;;;5095754;28;20545;-80
2023/03/28 02:58:42;;;;;;;3.45;1.80;;;3.00;99.90;;;;;;5095878;28;20540;-80
2023/03/28 03:01:09;;;;;;;2.77;1.63;;;3.00;99.90;;;;;;5096239;28;20024;-80
2023/03/28 03:03:35;;;;;;;3.57;2.10;;;2.90;99.90;;;;;;5095565;28;20229;-80
2023/03/28 03:06:04;;;;;;;7.00;2.30;;;2.90;99.90;;;;;;5096771;28;20492;-80
2023/03/28 03:08:31;;;;;;;4.40;2.00;;;2.90;99.90;;;;;;5096511;28;20532;-82
2023/03/28 03:10:56;;;;;;;4.87;2.53;;;2.80;99.90;;;;;;5096281;28;20028;-82
2023/03/28 03:13:23;;;;;;;2.80;2.20;;;2.80;99.90;;;;;;5095620;28;20082;-81
2023/03/28 03:15:49;;;;;;;6.13;2.57;;;2.80;99.90;;;;;;5095635;28;20036;-81
2023/03/28 03:18:15;;;;;;;4.33;2.10;;;2.90;99.90;;;;;;5095810;28;20126;-81
2023/03/28 03:20:44;;;;;;;5.50;2.30;;;2.80;99.90;;;;;;5097016;28;20020;-80
2023/03/28 03:23:10;;;;;;;6.03;2.60;;;2.80;99.90;;;;;;5095982;28;20031;-81
2023/03/28 03:25:36;;;;;;;2.93;2.10;;;2.80;99.90;;;;;;5095075;28;20063;-80
2023/03/28 03:28:02;;;;;;;4.60;2.27;;;2.80;99.90;;;;;;5095427;28;20443;-81
2023/03/28 03:30:28;;;;;;;10.13;2.30;;;2.80;99.90;;;;;;5094289;28;20066;-82
2023/03/28 03:32:54;;;;;;;6.93;2.80;;;2.80;99.90;;;;;;5095688;28;20028;-82
2023/03/28 03:35:20;;;;;;;5.83;2.10;;;2.80;99.90;;;;;;5095286;28;20028;-82
2023/03/28 03:37:46;;;;;;;9.50;2.33;;;2.80;99.90;;;;;;5096900;28;20075;-82
2023/03/28 03:40:12;;;;;;;5.17;2.40;;;2.80;99.90;;;;;;5095537;28;20074;-81
2023/03/28 03:42:39;;;;;;;6.07;2.50;;;2.80;99.90;;;;;;5094980;28;20047;-82
2023/03/28 03:45:05;;;;;;;7.10;2.73;;;2.70;99.90;;;;;;5096222;28;20484;-82
2023/03/28 03:47:31;;;;;;;3.40;2.43;;;2.70;99.90;;;;;;5077957;28;20048;-82
2023/03/28 03:49:57;;;;;;;3.60;2.50;;;2.80;99.90;;;;;;5078559;28;20035;-81
2023/03/28 03:52:22;;;;;;;4.83;2.80;;;2.80;99.90;;;;;;5095890;28;20020;-81
2023/03/28 03:54:48;;;;;;;3.90;2.60;;;2.70;99.90;;;;;;5078627;28;20046;-81
2023/03/28 03:57:14;;;;;;;4.07;2.83;;;2.70;99.90;;;;;;5078274;28;20357;-80
2023/03/28 03:59:39;;;;;;;8.27;2.57;;;2.80;99.90;;;;;;5077847;28;20032;-82
2023/03/28 04:02:05;;;;;;;9.53;3.10;;;2.70;99.90;;;;;;5078262;28;20024;-81
2023/03/28 04:04:31;;;;;;;5.57;3.27;;;2.80;99.90;;;;;;5077605;28;20046;-82
2023/03/28 04:06:57;;;;;;;6.93;2.87;;;2.70;99.90;;;;;;5078305;28;20036;-81
2023/03/28 04:09:26;;;;;;;5.97;2.70;;;2.80;99.90;;;;;;5077654;28;20114;-83
2023/03/28 04:11:52;;;;;;;6.47;2.83;;;2.80;99.90;;;;;;5096198;28;20480;-81
2023/03/28 04:14:18;;;;;;;3.27;2.80;;;2.80;99.90;;;;;;5077869;28;20035;-82
2023/03/28 04:16:43;;;;;;;6.73;3.10;;;2.70;99.90;;;;;;5095583;28;20044;-82
2023/03/28 04:19:12;;;;;;;5.40;2.87;;;2.70;99.90;;;;;;5095827;28;20034;-81
2023/03/28 04:21:41;;;;;;;8.10;3.23;;;2.60;99.90;;;;;;5077354;28;20020;-81
2023/03/28 04:24:07;;;;;;;7.57;2.93;;;2.70;99.90;;;;;;5077953;28;20020;-82
2023/03/28 04:26:36;;;;;;;4.87;2.83;;;2.80;99.90;;;;;;5077322;28;20032;-82
2023/03/28 04:29:04;;;;;;;4.10;2.80;;;2.80;99.90;;;;;;5077660;28;20028;-82
2023/03/28 04:31:34;;;;;;;5.27;2.80;;;2.80;99.90;;;;;;5077048;28;20024;-82
2023/03/28 04:34:02;;;;;;;4.67;2.80;;;2.80;99.90;;;;;;5073874;28;20064;-82
2023/03/28 04:36:28;;;;;;;6.47;3.10;;;2.80;99.90;;;;;;5069870;28;20036;-82
2023/03/28 04:38:57;;;;;;;6.43;3.13;;;2.80;99.90;;;;;;5057496;28;20355;-81
2023/03/28 04:41:24;;;;;;;4.50;3.03;;;2.80;99.90;;;;;;5056771;28;20020;-82
2023/03/28 04:43:50;;;;;;;5.47;3.10;;;2.80;99.90;;;;;;5057056;28;20058;-82
2023/03/28 04:46:16;;;;;;;8.27;3.03;;;2.80;99.90;;;;;;5057659;28;20046;-82
2023/03/28 04:48:41;;;;;;;7.10;3.20;;;2.80;99.90;;;;;;5056525;28;20266;-82
2023/03/28 04:51:07;;;;;;;10.53;3.30;;;2.70;99.90;;;;;;5056969;28;20024;-82
2023/03/28 04:53:33;;;;;;;7.30;2.93;;;2.70;99.90;;;;;;5056573;28;20027;-81
2023/03/28 04:55:58;;;;;;;6.27;3.00;;;2.60;99.90;;;;;;5056877;28;20032;-81
2023/03/28 04:58:24;;;;;;;6.43;3.30;;;2.60;99.90;;;;;;5073803;28;20025;-81
2023/03/28 05:00:50;;;;;;;5.23;2.90;;;2.60;99.90;;;;;;5074528;28;20021;-81
2023/03/28 05:03:18;;;;;;;7.50;2.80;;;2.70;99.90;;;;;;5056710;28;20021;-80
2023/03/28 05:05:48;;;;;;;7.23;3.07;;;2.70;99.90;;;;;;5055917;28;20044;-81
2023/03/28 05:08:17;;;;;;;7.63;3.37;;;2.70;99.90;;;;;;5057083;28;20036;-80
2023/03/28 05:10:44;;;;;;;6.73;3.37;;;2.70;99.90;;;;;;5055982;28;20025;-81
2023/03/28 05:13:10;;;;;;;6.50;3.00;;;2.80;99.90;;;;;;5074337;28;20027;-81
2023/03/28 05:15:36;;;;;;;5.97;2.97;;;2.80;99.90;;;;;;5073494;28;20052;-81
2023/03/28 05:18:02;;;;;;;8.70;3.37;;;2.80;99.90;;;;;;5057034;28;20036;-81
2023/03/28 05:20:28;;;;;;;5.77;3.20;;;2.70;99.90;;;;;;5056261;28;20029;-81
2023/03/28 05:22:54;;;;;;;4.50;2.87;;;2.60;99.90;;;;;;5074118;28;20017;-81
2023/03/28 05:25:20;;;;;;;6.57;3.10;;;2.60;99.90;;;;;;5056670;28;20174;-81
2023/03/28 05:27:46;;;;;;;8.20;3.63;;;2.50;99.90;;;;;;5056176;28;20115;-81
2023/03/28 05:30:12;;;;;;;3.83;3.20;;;2.40;99.90;;;;;;5056736;28;20028;-81
2023/03/28 05:32:38;;;;;;;4.90;3.00;;;2.40;99.90;;;;;;5073798;28;20146;-81
2023/03/28 05:35:06;;;;;;;7.97;3.83;;;2.30;99.90;;;;;;5056556;28;20074;-81
2023/03/28 05:37:32;;;;;;;6.03;3.37;;;2.20;99.90;;;;;;5056050;28;20043;-81
2023/03/28 05:39:57;;;;;;;7.03;3.67;;;2.10;99.90;;;;;;5074082;28;20024;-80
2023/03/28 05:42:23;;;;;;;6.40;3.50;;;2.20;99.90;;;;;;5056505;28;20090;-81
2023/03/28 05:44:49;;;;;;;5.87;3.37;;;2.20;99.90;;;;;;5062179;28;20052;-82
2023/03/28 05:47:15;;;;;;;5.63;3.63;;;2.20;99.90;;;;;;5092415;28;20040;-82
2023/03/28 05:49:41;;;;;;;8.87;4.13;;;2.30;99.90;;;;;;5092647;28;20039;-82
2023/03/28 05:52:06;;;;;;;6.37;3.60;;;2.30;99.90;;;;;;5092880;28;20024;-82
2023/03/28 05:54:32;;;;;;;8.57;3.77;;;2.40;99.90;;;;;;5092235;28;20070;-80
2023/03/28 05:56:58;;;;;;;7.77;3.93;;;2.40;99.90;;;;;;5094270;28;20058;-79
2023/03/28 05:59:23;;;;;;;5.73;3.90;;;2.40;99.90;;;;;;5092947;28;20035;-80
2023/03/28 06:01:51;;;;;;;7.80;3.60;;;2.40;99.90;;;;;;5092402;28;20032;-80
2023/03/28 06:04:17;;;;;;;8.33;3.33;;;2.40;99.90;;;;;;5092647;28;20024;-80
2023/03/28 06:06:44;;;;;;;9.53;3.63;;;2.50;99.90;;;;;;5092031;28;20032;-81
2023/03/28 06:09:11;;;;;;;8.63;3.40;;;2.50;99.90;;;;;;5093013;28;20110;-80
2023/03/28 06:11:37;;;;;;;7.53;3.43;;;2.40;99.90;;;;;;5092341;28;20032;-80
2023/03/28 06:14:02;;;;;;;6.20;2.90;;;2.40;99.90;;;;;;5092582;28;20154;-80
2023/03/28 06:16:28;;;;;;;10.00;4.03;;;2.50;99.90;;;;;;5092353;28;20068;-82
2023/03/28 06:18:53;;;;;;;6.20;3.60;;;2.60;99.90;;;;;;5092820;28;20032;-80
2023/03/28 06:21:19;;;;;;;6.27;3.47;;;2.60;99.90;;;;;;5092807;28;20035;-80
2023/03/28 06:23:45;;;;;;;6.30;3.40;;;2.60;99.90;;;;;;5092731;28;20085;-80
2023/03/28 06:26:11;;;;;;;9.97;3.70;;;2.70;99.90;;;;;;5092752;28;20060;-80
2023/03/28 06:28:37;;;;;;;8.80;3.90;;;2.70;99.90;;;;;;5092196;28;20058;-80
2023/03/28 06:31:02;;;;;;;6.67;3.77;;;2.70;99.90;;;;;;5093776;28;20024;-80
2023/03/28 06:33:28;;;;;;;7.87;3.83;;;2.70;99.90;;;;;;5092383;28;20020;-85
2023/03/28 06:35:54;;;;;;;7.80;3.60;;;2.80;99.90;;;;;;5092883;28;20331;-80
2023/03/28 06:38:19;;;;;;;6.87;3.87;;;2.80;99.90;;;;;;5092621;28;20378;-80
2023/03/28 06:40:45;;;;;;;11.30;3.83;;;2.90;99.90;;;;;;5092006;28;20035;-79
2023/03/28 06:43:11;;;;;;;5.23;3.50;;;2.90;99.90;;;;;;5092763;28;20020;-79
2023/03/28 06:45:36;;;;;;;9.10;3.97;;;2.90;99.90;;;;;;5091527;28;20040;-80
2023/03/28 06:48:02;;;;;;;7.27;4.03;;;3.00;99.90;;;;;;5092665;28;20109;-78
2023/03/28 06:50:28;;;;;;;11.73;3.90;;;3.00;99.90;;;;;;5093758;28;20035;-79
2023/03/28 06:52:54;;;;;;;7.43;3.90;;;3.10;99.90;;;;;;5092462;28;20035;-79
2023/03/28 06:55:21;;;;;;;8.10;3.63;;;3.10;99.90;;;;;;5092442;28;20020;-79
2023/03/28 06:57:47;;;;;;;7.50;3.80;;;3.10;99.90;;;;;;5093047;28;20365;-80
2023/03/28 07:00:13;;;;;;;8.60;4.10;;;3.10;99.90;;;;;;5089171;28;20036;-82
2023/03/28 07:02:39;;;;;;;8.83;3.57;;;3.20;99.90;;;;;;5097862;28;20030;-80
2023/03/28 07:05:05;;;;;;;8.70;3.63;;;3.30;99.90;;;;;;5107821;28;20115;-78
2023/03/28 07:07:30;;;;;;;6.67;3.50;;;3.40;99.90;;;;;;5099373;28;20537;-79
2023/03/28 07:09:56;;;;;;;11.03;3.67;;;3.40;99.90;;;;;;5101254;28;20055;-80
2023/03/28 07:12:22;;;;;;;6.97;3.80;;;3.40;99.90;;;;;;5106707;28;20056;-79
2023/03/28 07:14:47;;;;;;;8.90;3.83;;;3.40;99.90;;;;;;5102544;28;20032;-79
2023/03/28 07:17:13;;;;;;;8.97;3.90;;;3.50;99.90;;;;;;5112704;28;20039;-79
2023/03/28 07:19:39;;;;;;;5.93;3.80;;;3.50;99.90;;;;;;5097810;28;20023;-79
2023/03/28 07:22:05;;;;;;;5.87;3.70;;;3.50;99.90;;;;;;5096823;28;20426;-78
2023/03/28 07:24:31;;;;;;;8.57;4.03;;;3.60;99.90;;;;;;5096410;28;20028;-79
2023/03/28 07:26:56;;;;;;;7.23;3.63;;;3.70;99.90;;;;;;5097836;28;20032;-81
2023/03/28 07:29:22;;;;;;;9.87;3.67;;;3.60;99.90;;;;;;5098860;28;20142;-82
2023/03/28 07:31:47;;;;;;;6.47;3.27;;;3.60;99.90;;;;;;5099743;28;20028;-80
2023/03/28 07:34:17;;;;;;;9.00;3.53;;;3.70;99.90;;;;;;5098702;28;20115;-79
2023/03/28 07:36:43;;;;;;;6.17;3.80;;;3.70;99.90;;;;;;5091704;28;20039;-78
2023/03/28 07:39:09;;;;;;;9.83;3.90;;;3.80;99.90;;;;;;5095237;28;20091;-78
2023/03/28 07:41:34;;;;;;;10.77;3.87;;;3.80;99.90;;;;;;5098412;28;20035;-76
2023/03/28 07:44:00;;;;;;;11.03;3.80;;;3.90;99.90;;;;;;5088525;28;20398;-77
2023/03/28 07:46:26;;;;;;;8.77;4.40;;;3.90;99.90;;;;;;5059693;28;20078;-77
2023/03/28 07:48:54;;;;;;;5.90;3.30;;;3.90;99.90;;;;;;5058915;28;20029;-77
2023/03/28 07:51:20;;;;;;;8.83;2.93;;;4.00;99.90;;;;;;5073965;28;20063;-80
2023/03/28 07:53:46;;;;;;;6.20;3.30;;;4.00;99.90;;;;;;5088764;28;20024;-80
2023/03/28 07:56:11;;;;;;;8.67;3.50;;;4.10;99.90;;;;;;5063005;28;20031;-80
2023/03/28 07:58:38;;;;;;;9.20;3.00;;;4.10;99.90;;;;;;5092423;28;20030;-79
2023/03/28 08:01:09;;;;;;;7.43;3.00;;;4.20;99.90;;;;;;5063125;28;20029;-78
2023/03/28 08:03:35;;;;;;;7.93;3.00;;;4.20;99.90;;;;;;5089572;28;20480;-78
2023/03/28 08:06:06;;;;;;;7.40;2.60;;;4.30;99.90;;;;;;5079838;28;20037;-78
2023/03/28 08:08:31;;;;;;;7.03;2.63;;;4.30;99.90;;;;;;5064054;28;20028;-77
2023/03/28 08:10:58;;;;;;;11.17;2.37;;;4.40;99.90;;;;;;5084218;28;20521;-77
2023/03/28 08:13:24;;;;;;;8.70;2.53;;;4.40;99.90;;;;;;5059313;28;20385;-76
2023/03/28 08:15:51;;;;;;;4.93;2.57;;;4.40;99.90;;;;;;5058293;28;20045;-76
2023/03/28 08:18:20;;;;;;;5.27;2.30;;;4.50;99.90;;;;;;5062171;28;20096;-74
2023/03/28 08:20:47;;;;;;;4.73;2.40;;;4.60;99.90;;;;;;5062594;28;20036;-81
2023/03/28 08:23:13;;;;;;;3.70;2.33;;;4.60;99.90;;;;;;5077450;28;20462;-83
2023/03/28 08:25:39;;;;;;;7.70;2.67;;;4.60;99.90;;;;;;5061413;28;20024;-79
2023/03/28 08:28:05;;;;;;;6.00;2.60;;;4.60;99.90;;;;;;5069939;28;20039;-80
2023/03/28 08:30:31;;;;;;;7.73;2.60;;;4.70;99.90;;;;;;5058787;28;20374;-77
2023/03/28 08:32:57;;;;;;;4.03;2.10;;;4.70;99.90;;;;;;5070148;28;20070;-76
2023/03/28 08:35:22;;;;;;;5.93;2.37;;;4.70;99.90;;;;;;5059640;28;20393;-77
2023/03/28 08:37:50;;;;;;;4.40;2.20;;;4.70;99.90;;;;;;5061584;28;20016;-77
2023/03/28 08:40:19;;;;;;;5.07;2.00;;;4.80;99.90;;;;;;5070465;28;20031;-76
2023/03/28 08:43:03;;;;;;;6.83;1.80;;;4.90;99.90;;;;;;5080364;28;20040;-76
2023/03/28 08:45:45;;;;;;;4.20;1.70;;;5.00;99.90;;;;;;5085154;28;20070;-76
2023/03/28 08:48:30;;;;;;;6.33;2.47;;;5.10;99.90;;;;;;5104708;28;20028;-77
2023/03/28 08:51:30;;;;;;;5.20;2.10;;;5.20;99.90;;;;;;5101161;28;20501;-76
2023/03/28 08:54:12;;;;;;;5.60;2.40;;;5.20;99.90;;;;;;5076351;28;20036;-79
2023/03/28 08:56:44;;;;;;;6.32;1.90;;;5.30;99.90;;;;;;5109296;28;20030;-77
2023/03/28 08:59:16;;;;;;;4.63;1.90;;;5.40;99.90;;;;;;5104709;28;20483;-76
2023/03/28 09:01:42;;;;;;;4.78;1.60;;;5.60;99.90;;;;;;5086848;28;20452;-76
2023/03/28 09:04:27;;;;;;;5.93;2.73;;;5.60;99.90;;;;;;5099659;28;20077;-78
2023/03/28 09:07:03;;;;;;;9.50;2.00;;;5.70;99.90;;;;;;5098870;28;20028;-75
2023/03/28 09:09:48;;;;;;;7.13;2.23;;;5.80;99.90;;;;;;5109101;28;20027;-76
2023/03/28 09:12:25;;;;;;;5.40;1.73;;;5.80;99.90;;;;;;5092244;28;20118;-75
2023/03/28 09:15:20;;;;;;;5.63;1.57;;;5.90;99.90;;;;;;5092365;28;20032;-76
2023/03/28 09:18:31;;;;;;;4.03;1.10;;;5.90;99.90;;;;;;5093294;28;20073;-77
2023/03/28 09:21:22;;;;;;;5.07;1.60;;;6.10;99.90;;;;;;5092123;28;20039;-76
2023/03/28 09:24:46;;;;;;;8.70;1.50;;;6.20;99.90;;;;;;5071763;28;20025;-77
2023/03/28 09:27:15;;;;;;;3.90;1.23;;;6.40;99.90;;;;;;4991556;28;20030;-77
2023/03/28 09:29:44;;;;;;;3.67;1.43;;;6.60;99.90;;;;;;4975089;28;20030;-77
2023/03/28 09:32:23;;;;;;;4.70;1.40;;;6.70;99.90;;;;;;5016183;28;20045;-77
2023/03/28 09:34:50;;;;;;;3.10;1.10;;;6.70;99.90;;;;;;5014084;28;20068;-77
2023/03/28 09:37:40;;;;;;;3.53;1.80;;;6.70;99.90;;;;;;5014388;28;20025;-76
2023/03/28 09:40:20;;;;;;;6.23;2.00;;;6.80;99.90;;;;;;5031131;28;20494;-78
2023/03/28 09:43:09;;;;;;;6.37;2.53;;;6.70;99.90;;;;;;5030461;28;20138;-75
2023/03/28 09:45:35;;;;;;;5.30;2.03;;;6.70;99.90;;;;;;5017672;28;20053;-78
2023/03/28 09:48:11;;;;;;;6.23;1.83;;;6.60;99.90;;;;;;4991637;28;20566;-76
2023/03/28 09:50:36;;;;;;;8.93;1.90;;;6.60;99.90;;;;;;4994381;28;20121;-80
2023/03/28 09:53:02;;;;;;;3.20;1.57;;;6.60;99.90;;;;;;4994525;28;20117;-76
2023/03/28 09:55:29;;;;;;;3.97;1.70;;;6.50;99.90;;;;;;4997002;28;20442;-77
2023/03/28 09:58:13;;;;;;;4.23;1.30;;;6.60;99.90;;;;;;5040159;28;20039;-76
2023/03/28 10:00:41;;;;;;;6.30;1.50;;;6.80;99.90;;;;;;5097132;28;20050;-77
2023/03/28 10:03:31;;;;;;;5.73;1.30;;;6.80;99.90;;;;;;5107253;28;20032;-76
2023/03/28 10:06:18;;;;;;;5.07;1.10;;;6.90;99.80;;;;;;5111211;28;20035;-75
2023/03/28 10:08:44;;;;;;;2.23;1.20;;;6.80;99.20;;;;;;5100384;28;20028;-76
2023/03/28 10:11:16;;;;;;;3.87;1.33;;;6.80;99.90;;;;;;5107660;28;20024;-75
2023/03/28 10:13:46;;;;;;;2.30;1.05;;;6.90;99.90;;;;;;5070743;28;20446;-76
2023/03/28 10:16:14;;;;;;;5.30;1.30;;;7.00;99.90;;;;;;5103721;28;20047;-75
2023/03/28 10:18:41;;;;;;;2.10;1.40;;;7.10;99.90;;;;;;5102832;28;20035;-77
2023/03/28 10:21:22;;;;;;;5.17;1.30;;;7.20;98.40;;;;;;5108764;28;20460;-75
2023/03/28 10:24:00;;;;;;;4.13;1.50;;;7.20;96.80;;;;;;5080955;28;20461;-76
2023/03/28 10:26:27;;;;;;;5.60;2.50;;;7.20;97.30;;;;;;5091876;28;20130;-76
2023/03/28 10:28:56;;;;;;;5.03;1.40;;;7.30;98.50;;;;;;5097735;28;20119;-78
2023/03/28 10:31:28;;;;;;;5.13;2.00;;;7.30;97.90;;;;;;5095950;28;20080;-77
2023/03/28 10:33:56;;;;;;;4.28;1.33;;;7.40;98.60;;;;;;5111879;28;20020;-77
2023/03/28 10:36:32;;;;;;;8.17;3.17;;;7.40;97.60;;;;;;5112094;28;20036;-77
2023/03/28 10:38:58;;;;;;;2.73;1.27;;;7.50;96.80;;;;;;5099461;28;20044;-77
2023/03/28 10:41:26;;;;;;;4.63;1.50;;;7.70;95.30;;;;;;5097085;28;20028;-77
2023/03/28 10:43:53;;;;;;;2.87;1.27;;;7.70;91.80;;;;;;5099813;28;20024;-77
2023/03/28 10:46:34;;;;;;;2.85;1.08;;;7.70;92.10;;;;;;5089386;28;20032;-77
2023/03/28 10:49:04;;;;;;;1.98;1.20;;;7.70;92.20;;;;;;5078596;28;20028;-79
2023/03/28 10:51:31;;;;;;;4.28;1.08;;;7.70;91.50;;;;;;5096553;28;20025;-77
2023/03/28 10:53:56;;;;;;;3.08;1.20;;;7.70;92.30;;;;;;5083415;28;20029;-76
2023/03/28 10:56:34;;;;;;;5.00;0.77;;;7.70;91.80;;;;;;5103770;28;20030;-77
2023/03/28 10:59:17;;;;;;;2.83;0.70;;;7.50;88.60;;;;;;5078180;28;20024;-77
2023/03/28 11:01:53;;;;;;;3.22;1.45;;;7.60;87.90;;;;;;5074351;28;20473;-79
2023/03/28 11:04:49;;;;;;;2.55;1.20;;;7.60;90.20;;;;;;5079481;28;20027;-79
2023/03/28 11:07:48;;;;;;;3.33;1.38;;;7.70;91.20;;;;;;5076288;28;20453;-79
2023/03/28 11:10:28;;;;;;;2.78;1.05;;;7.90;91.60;;;;;;5089555;28;20404;-79
2023/03/28 11:13:24;;;;;;;9.00;1.30;;;7.90;89.20;;;;;;5091910;28;20023;-80
2023/03/28 11:15:57;;;;;;;4.53;1.30;;;8.00;89.60;;;;;;5079621;28;20036;-79
2023/03/28 11:18:44;;;;;;;4.95;1.23;;;8.10;87.60;;;;;;5077811;28;20119;-80
2023/03/28 11:21:31;;;;;;;2.95;1.33;;;8.20;85.70;;;;;;5083618;28;20032;-80
2023/03/28 11:23:57;;;;;;;2.97;1.45;;;8.30;84.30;;;;;;5076141;28;20023;-79
2023/03/28 11:26:33;;;;;;;4.05;1.10;;;8.50;83.80;;;;;;5094168;28;20038;-79
2023/03/28 11:29:09;;;;;;;4.03;1.08;;;8.70;88.40;;;;;;5083727;28;20241;-79
2023/03/28 11:32:07;;;;;;;1.92;0.98;;;8.90;87.50;;;;;;5086449;28;20062;-79
2023/03/28 11:34:57;;;;;;;6.00;1.10;;;9.00;80.50;;;;;;5087202;28;20138;-79
2023/03/28 11:37:33;;;;;;;3.28;1.00;;;9.10;80.50;;;;;;5078639;28;20032;-81
2023/03/28 11:40:06;;;;;;;1.65;1.00;;;9.10;79.80;;;;;;5091319;28;20038;-78
2023/03/28 11:42:54;;;;;;;2.75;1.20;;;9.10;78.60;;;;;;5090723;28;20465;-79
2023/03/28 11:45:27;;;;;;;3.35;1.38;;;9.00;77.80;;;;;;5109257;28;20105;-79
2023/03/28 11:48:15;;;;;;;3.28;1.63;;;9.00;78.20;;;;;;5115457;28;20048;-80
2023/03/28 11:51:01;;;;;;;4.25;1.10;;;9.10;77.80;;;;;;5103706;28;20060;-80
2023/03/28 11:53:38;;;;;;;4.20;1.10;;;9.10;77.80;;;;;;5096708;28;20020;-79
2023/03/28 11:56:29;;;;;;;2.53;1.20;;;9.00;77.60;;;;;;5104600;28;20430;-79
2023/03/28 11:59:01;;;;;;;3.22;1.30;;;9.00;76.60;;;;;;5100275;28;20032;-80
2023/03/28 12:01:32;;;;;;;4.32;1.40;;;9.00;77.80;;;;;;5104834;28;20028;-78
2023/03/28 12:04:16;;;;;;;3.60;1.50;;;9.00;79.70;;;;;;5108846;28;20635;-78
2023/03/28 12:06:58;;;;;;;4.78;1.27;;;9.00;75.90;;;;;;5107531;28;20120;-79
2023/03/28 12:09:48;;;;;;;6.10;1.42;;;8.90;75.90;;;;;;5099278;28;20029;-78
2023/03/28 12:12:36;;;;;;;4.35;1.40;;;8.90;77.30;;;;;;5106252;28;20077;-78
2023/03/28 12:15:16;;;;;;;6.70;1.25;;;8.90;79.80;;;;;;5089642;28;20035;-78
2023/03/28 12:17:56;;;;;;;3.00;1.00;;;9.00;77.10;;;;;;5093913;28;20038;-78
2023/03/28 12:20:36;;;;;;;2.45;1.20;;;9.10;77.40;;;;;;5099611;28;20380;-78
2023/03/28 12:23:14;;;;;;;2.85;1.17;;;9.30;76.20;;;;;;5092160;28;20016;-78
2023/03/28 12:25:49;;;;;;;4.15;1.70;;;9.40;76.40;;;;;;5088564;28;20598;-80
2023/03/28 12:28:37;;;;;;;3.42;1.25;;;9.60;76.20;;;;;;5100453;28;20039;-78
2023/03/28 12:31:06;;;;;;;4.18;1.10;;;9.80;77.60;;;;;;5098789;28;20035;-79
2023/03/28 12:33:50;;;;;;;3.83;1.20;;;10.10;77.20;;;;;;5094014;28;20024;-78
2023/03/28 12:36:40;;;;;;;1.95;1.10;;;10.40;77.80;;;;;;5103709;28;20027;-78
2023/03/28 12:39:18;;;;;;;2.25;1.05;;;10.70;75.90;;;;;;5092661;28;20122;-78
2023/03/28 12:41:44;;;;;;;1.60;0.98;;;11.10;76.70;;;;;;5102663;28;20030;-78
2023/03/28 12:44:23;;;;;;;4.97;1.30;;;11.40;75.40;;;;;;5099817;28;20071;-78
2023/03/28 12:47:01;;;;;;;3.17;1.40;;;11.70;73.40;;;;;;5098767;28;20052;-78
2023/03/28 12:49:37;;;;;;;6.63;1.77;;;12.10;74.90;;;;;;5093440;28;20101;-79
2023/03/28 12:52:06;;;;;;;5.03;1.15;;;12.40;73.50;;;;;;5100583;28;20028;-77
2023/03/28 12:54:51;;;;;;;1.77;1.13;;;12.50;70.80;;;;;;5093397;28;20107;-77
2023/03/28 12:57:39;;;;;;;2.72;1.00;;;12.70;68.20;;;;;;5091156;28;20051;-79
2023/03/28 13:00:16;;;;;;;2.78;1.00;;;12.80;65.70;;;;;;5099324;28;20024;-79
2023/03/28 13:03:04;;;;;;;3.25;1.20;;;13.10;67.70;;;;;;5097629;28;20028;-80
2023/03/28 13:05:56;;;;;;;5.30;1.30;;;13.30;62.50;;;;;;5099010;28;20521;-79
2023/03/28 13:08:59;;;;;;;3.05;1.10;;;13.40;66.20;;;;;;5093503;28;20032;-79
2023/03/28 13:11:49;;;;;;;3.35;1.27;;;14.10;64.90;;;;;;5093345;28;20036;-78
2023/03/28 13:14:30;;;;;;;3.63;1.08;;;14.60;57.30;;;;;;5099922;28;20036;-79
2023/03/28 13:17:02;;;;;;;3.80;1.13;;;15.90;54.00;;;;;;5103744;28;20495;-78
2023/03/28 13:19:51;;;;;;;2.38;0.93;;;16.20;53.40;;;;;;5096477;28;20028;-78
2023/03/28 13:22:39;;;;;;;4.03;1.20;;;16.20;54.30;;;;;;5101776;28;20024;-79
2023/03/28 13:25:27;;;;;;;2.67;1.00;;;17.00;52.30;;;;;;5093469;28;20051;-79